Time;durP1;ratioP1;P1;durP2;ratioP2;P2;SDS_P1;SDS_P2;PMS_P1;PMS_P2;Temp;Humidity;BMP_temperature;BMP_pressure;BME280_temperature;BME280_humidity;BME280_pressure;Samples;Min_cycle;Max_cycle;Signal;HPM_P1;HPM_P2
2022/07/17 00:01:11;;;;;;;0.10;0.10;;;;;;;;;;6225757;22;20083;-91
2022/07/17 00:03:37;;;;;;;0.10;0.10;;;;;;;;;;6224707;22;20039;-90
2022/07/17 00:06:03;;;;;;;0.10;0.10;;;;;;;;;;6224669;22;20146;-90
2022/07/17 00:08:31;;;;;;;0.10;0.10;;;;;;;;;;6224908;22;20041;-91
2022/07/17 00:10:57;;;;;;;0.10;0.10;;;;;;;;;;6225198;22;20097;-92
2022/07/17 00:13:23;;;;;;;0.10;0.10;;;;;;;;;;6225088;22;20441;-91
2022/07/17 00:15:50;;;;;;;0.10;0.10;;;;;;;;;;6224667;22;20018;-90
2022/07/17 00:18:16;;;;;;;0.10;0.10;;;;;;;;;;6224466;22;20437;-91
2022/07/17 00:20:43;;;;;;;0.10;0.10;;;;;;;;;;6224686;22;20015;-91
2022/07/17 00:23:09;;;;;;;0.10;0.10;;;;;;;;;;6225033;22;20457;-90
2022/07/17 00:25:35;;;;;;;0.10;0.10;;;;;;;;;;6224470;22;20114;-90
2022/07/17 00:28:01;;;;;;;0.10;0.10;;;;;;;;;;6224761;22;20472;-90
2022/07/17 00:30:27;;;;;;;0.10;0.10;;;;;;;;;;6224621;22;20018;-90
2022/07/17 00:32:53;;;;;;;0.10;0.10;;;;;;;;;;6224462;22;20087;-90
2022/07/17 00:35:19;;;;;;;0.10;0.10;;;;;;;;;;6224712;22;20054;-91
2022/07/17 00:37:46;;;;;;;0.10;0.10;;;;;;;;;;6224727;22;20062;-91
2022/07/17 00:40:12;;;;;;;0.10;0.10;;;;;;;;;;6224562;22;20061;-92
2022/07/17 00:42:40;;;;;;;0.10;0.10;;;;;;;;;;6199832;22;20091;-91
2022/07/17 00:45:06;;;;;;;0.20;0.20;;;;;;;;;;6224656;22;20011;-90
2022/07/17 00:47:32;;;;;;;0.10;0.10;;;;;;;;;;6224263;22;20445;-91
2022/07/17 00:49:58;;;;;;;0.10;0.10;;;;;;;;;;6224124;22;20012;-90
2022/07/17 00:52:24;;;;;;;0.10;0.10;;;;;;;;;;6224481;22;20097;-91
2022/07/17 00:54:50;;;;;;;0.10;0.10;;;;;;;;;;6224116;22;20014;-90
2022/07/17 00:57:16;;;;;;;0.10;0.10;;;;;;;;;;6224296;22;20015;-90
2022/07/17 00:59:42;;;;;;;0.10;0.10;;;;;;;;;;6224115;22;20286;-91
2022/07/17 01:02:09;;;;;;;0.10;0.10;;;;;;;;;;6224084;22;20016;-90
2022/07/17 01:04:35;;;;;;;0.10;0.10;;;;;;;;;;6224051;22;20012;-89
2022/07/17 01:07:01;;;;;;;0.10;0.10;;;;;;;;;;6224514;22;20235;-89
2022/07/17 01:09:27;;;;;;;0.10;0.10;;;;;;;;;;6249329;22;20022;-90
2022/07/17 01:11:54;;;;;;;0.10;0.10;;;;;;;;;;6224498;22;20007;-90
2022/07/17 01:14:20;;;;;;;0.10;0.10;;;;;;;;;;6223760;22;20011;-89
2022/07/17 01:16:45;;;;;;;0.10;0.10;;;;;;;;;;6206660;23;20012;-90
2022/07/17 01:19:12;;;;;;;0.10;0.10;;;;;;;;;;6211752;23;20023;-91
2022/07/17 01:21:41;;;;;;;0.10;0.10;;;;;;;;;;6222560;22;20069;-91
2022/07/17 01:24:07;;;;;;;0.10;0.10;;;;;;;;;;6219195;23;20016;-91
2022/07/17 01:26:33;;;;;;;0.10;0.10;;;;;;;;;;6218963;22;20020;-91
2022/07/17 01:28:59;;;;;;;0.10;0.10;;;;;;;;;;6218873;23;20023;-90
2022/07/17 01:31:25;;;;;;;0.10;0.10;;;;;;;;;;6215556;22;20080;-88
2022/07/17 01:33:51;;;;;;;0.10;0.10;;;;;;;;;;6218938;23;20015;-88
2022/07/17 01:36:22;;;;;;;0.10;0.10;;;;;;;;;;6238493;23;20012;-88
2022/07/17 01:38:48;;;;;;;0.10;0.10;;;;;;;;;;6243901;22;20012;-89
2022/07/17 01:41:14;;;;;;;0.10;0.10;;;;;;;;;;6218850;23;20020;-88
2022/07/17 01:43:40;;;;;;;0.10;0.10;;;;;;;;;;6218714;23;20101;-88
2022/07/17 01:46:06;;;;;;;0.10;0.10;;;;;;;;;;6218356;23;20327;-88
2022/07/17 01:48:32;;;;;;;0.10;0.10;;;;;;;;;;6218633;23;20090;-88
2022/07/17 01:50:58;;;;;;;0.10;0.10;;;;;;;;;;6218677;23;20012;-88
2022/07/17 01:53:27;;;;;;;0.10;0.10;;;;;;;;;;6218640;23;20008;-89
2022/07/17 01:55:53;;;;;;;0.10;0.10;;;;;;;;;;6218777;23;20016;-89
2022/07/17 01:58:19;;;;;;;0.10;0.10;;;;;;;;;;6218493;23;20514;-89
2022/07/17 02:00:45;;;;;;;0.10;0.10;;;;;;;;;;6218786;23;20087;-89
2022/07/17 02:03:11;;;;;;;0.10;0.10;;;;;;;;;;6193753;23;20418;-90
2022/07/17 02:05:37;;;;;;;0.10;0.10;;;;;;;;;;6219670;23;20001;-90
2022/07/17 02:08:03;;;;;;;0.10;0.10;;;;;;;;;;6204236;22;20015;-89
2022/07/17 02:10:29;;;;;;;0.10;0.10;;;;;;;;;;6232120;23;20020;-91
2022/07/17 02:12:57;;;;;;;0.10;0.10;;;;;;;;;;6211304;23;20016;-91
2022/07/17 02:15:23;;;;;;;0.10;0.10;;;;;;;;;;6219936;23;20020;-91
2022/07/17 02:17:49;;;;;;;0.20;0.20;;;;;;;;;;6201769;23;20008;-91
2022/07/17 02:20:15;;;;;;;0.10;0.10;;;;;;;;;;6195491;23;20073;-91
2022/07/17 02:22:41;;;;;;;0.10;0.10;;;;;;;;;;6220082;23;20027;-89
2022/07/17 02:25:08;;;;;;;0.10;0.10;;;;;;;;;;6195845;23;20067;-90
2022/07/17 02:27:34;;;;;;;0.10;0.10;;;;;;;;;;6194468;23;20012;-90
2022/07/17 02:30:07;;;;;;;0.25;0.25;;;;;;;;;;6193682;23;20429;-90
2022/07/17 02:32:33;;;;;;;0.10;0.10;;;;;;;;;;6193837;23;20012;-89
2022/07/17 02:34:59;;;;;;;0.10;0.10;;;;;;;;;;6194360;23;20093;-90
2022/07/17 02:37:25;;;;;;;0.10;0.10;;;;;;;;;;6193628;23;20376;-89
2022/07/17 02:39:54;;;;;;;0.10;0.10;;;;;;;;;;6193423;23;20051;-90
2022/07/17 02:42:20;;;;;;;0.10;0.10;;;;;;;;;;6219336;23;20438;-91
2022/07/17 02:44:47;;;;;;;0.10;0.10;;;;;;;;;;6218728;23;20018;-90
2022/07/17 02:47:13;;;;;;;0.10;0.10;;;;;;;;;;6218076;23;20098;-89
2022/07/17 02:49:39;;;;;;;0.10;0.10;;;;;;;;;;6192941;23;20008;-89
2022/07/17 02:52:05;;;;;;;0.10;0.10;;;;;;;;;;6193121;23;20009;-89
2022/07/17 02:54:31;;;;;;;0.10;0.10;;;;;;;;;;6192961;23;20062;-90
2022/07/17 02:56:57;;;;;;;0.10;0.10;;;;;;;;;;6192958;23;20031;-90
2022/07/17 02:59:23;;;;;;;0.10;0.10;;;;;;;;;;6218107;23;20402;-90
2022/07/17 03:01:49;;;;;;;0.10;0.10;;;;;;;;;;6193100;23;20043;-90
2022/07/17 03:04:15;;;;;;;0.17;0.17;;;;;;;;;;6193401;23;20016;-90
2022/07/17 03:06:44;;;;;;;0.10;0.10;;;;;;;;;;6192559;23;20012;-90
2022/07/17 03:09:09;;;;;;;0.10;0.10;;;;;;;;;;6217701;23;20012;-90
2022/07/17 03:11:35;;;;;;;0.10;0.10;;;;;;;;;;6218468;23;20008;-90
2022/07/17 03:14:01;;;;;;;0.10;0.10;;;;;;;;;;6192763;23;20062;-90
2022/07/17 03:16:27;;;;;;;0.10;0.10;;;;;;;;;;6218511;23;20402;-89
2022/07/17 03:18:53;;;;;;;0.10;0.10;;;;;;;;;;6217731;23;20012;-89
2022/07/17 03:21:19;;;;;;;0.10;0.10;;;;;;;;;;6217900;23;20075;-89
2022/07/17 03:23:45;;;;;;;0.10;0.10;;;;;;;;;;6217758;23;20103;-89
2022/07/17 03:26:11;;;;;;;0.10;0.10;;;;;;;;;;6192732;23;20070;-90
2022/07/17 03:28:37;;;;;;;0.10;0.10;;;;;;;;;;6192895;23;20019;-90
2022/07/17 03:31:03;;;;;;;0.10;0.10;;;;;;;;;;6217929;23;20012;-89
2022/07/17 03:33:29;;;;;;;0.10;0.10;;;;;;;;;;6217939;23;20058;-89
2022/07/17 03:35:56;;;;;;;0.10;0.10;;;;;;;;;;6193013;23;20016;-90
2022/07/17 03:38:22;;;;;;;0.10;0.10;;;;;;;;;;6217874;23;20082;-91
2022/07/17 03:40:47;;;;;;;0.10;0.10;;;;;;;;;;6192470;23;20446;-90
2022/07/17 03:43:13;;;;;;;0.10;0.10;;;;;;;;;;6192830;23;20016;-89
2022/07/17 03:45:40;;;;;;;0.10;0.10;;;;;;;;;;6192554;23;20465;-89
2022/07/17 03:48:06;;;;;;;0.10;0.10;;;;;;;;;;6217996;22;20365;-89
2022/07/17 03:50:32;;;;;;;0.10;0.10;;;;;;;;;;6217757;23;20009;-90
2022/07/17 03:52:58;;;;;;;0.10;0.10;;;;;;;;;;6217538;23;20066;-89
2022/07/17 03:55:24;;;;;;;0.10;0.10;;;;;;;;;;6217824;23;20008;-89
2022/07/17 03:57:50;;;;;;;0.10;0.10;;;;;;;;;;6192855;23;20433;-89
2022/07/17 04:00:16;;;;;;;0.10;0.10;;;;;;;;;;6217599;23;20019;-89
2022/07/17 04:02:42;;;;;;;0.10;0.10;;;;;;;;;;6192461;23;20012;-90
2022/07/17 04:05:09;;;;;;;0.20;0.20;;;;;;;;;;6217727;23;20016;-90
2022/07/17 04:07:38;;;;;;;0.10;0.10;;;;;;;;;;6192345;23;20016;-90
2022/07/17 04:10:04;;;;;;;0.10;0.10;;;;;;;;;;6192612;23;20050;-90
2022/07/17 04:12:30;;;;;;;0.10;0.10;;;;;;;;;;6218115;23;20464;-90
2022/07/17 04:14:56;;;;;;;0.10;0.10;;;;;;;;;;6192605;23;20019;-91
2022/07/17 04:17:22;;;;;;;0.10;0.10;;;;;;;;;;6217791;23;20067;-91
2022/07/17 04:19:48;;;;;;;0.10;0.10;;;;;;;;;;6192933;23;20319;-90
2022/07/17 04:22:14;;;;;;;0.10;0.10;;;;;;;;;;6192352;23;20012;-89
2022/07/17 04:24:40;;;;;;;0.10;0.10;;;;;;;;;;6217823;23;20532;-89
2022/07/17 04:27:06;;;;;;;0.10;0.10;;;;;;;;;;6217461;23;20016;-90
2022/07/17 04:29:33;;;;;;;0.10;0.10;;;;;;;;;;6218393;23;20016;-90
2022/07/17 04:31:59;;;;;;;0.10;0.10;;;;;;;;;;6219455;23;20070;-90
2022/07/17 04:34:25;;;;;;;0.10;0.10;;;;;;;;;;6219552;23;20019;-90
2022/07/17 04:36:51;;;;;;;0.10;0.10;;;;;;;;;;6194542;23;20016;-90
2022/07/17 04:39:17;;;;;;;0.10;0.10;;;;;;;;;;6193910;23;20019;-90
2022/07/17 04:41:43;;;;;;;0.10;0.10;;;;;;;;;;6219450;23;20357;-90
2022/07/17 04:44:09;;;;;;;0.10;0.10;;;;;;;;;;6194885;23;20039;-90
2022/07/17 04:46:35;;;;;;;0.10;0.10;;;;;;;;;;6219482;23;20016;-90
2022/07/17 04:49:01;;;;;;;0.10;0.10;;;;;;;;;;6194066;23;20019;-91
2022/07/17 04:51:27;;;;;;;0.10;0.10;;;;;;;;;;6194479;23;20511;-91
2022/07/17 04:53:53;;;;;;;0.10;0.10;;;;;;;;;;6194097;23;20023;-88
2022/07/17 04:56:19;;;;;;;0.10;0.10;;;;;;;;;;6219215;23;20012;-88
2022/07/17 04:58:44;;;;;;;0.10;0.10;;;;;;;;;;6194106;23;20012;-87
2022/07/17 05:01:10;;;;;;;0.10;0.10;;;;;;;;;;6219130;23;20054;-86
2022/07/17 05:03:37;;;;;;;0.10;0.10;;;;;;;;;;6219133;23;20054;-87
2022/07/17 05:06:04;;;;;;;0.10;0.10;;;;;;;;;;6219011;23;20388;-89
2022/07/17 05:08:30;;;;;;;0.10;0.10;;;;;;;;;;6194378;23;20015;-87
2022/07/17 05:10:56;;;;;;;0.10;0.10;;;;;;;;;;6219123;23;20062;-87
2022/07/17 05:13:22;;;;;;;0.10;0.10;;;;;;;;;;6193888;23;20018;-86
2022/07/17 05:15:49;;;;;;;0.10;0.10;;;;;;;;;;6218920;23;20087;-88
2022/07/17 05:18:15;;;;;;;0.10;0.10;;;;;;;;;;6218754;22;20012;-88
2022/07/17 05:20:41;;;;;;;0.10;0.10;;;;;;;;;;6193971;23;20508;-89
2022/07/17 05:23:07;;;;;;;0.10;0.10;;;;;;;;;;6219013;23;20023;-88
2022/07/17 05:25:33;;;;;;;0.10;0.10;;;;;;;;;;6218971;23;20515;-88
2022/07/17 05:27:59;;;;;;;0.10;0.10;;;;;;;;;;6194028;22;20012;-87
2022/07/17 05:30:25;;;;;;;0.10;0.10;;;;;;;;;;6219368;23;20084;-88
2022/07/17 05:32:51;;;;;;;0.10;0.10;;;;;;;;;;6218637;23;20027;-87
2022/07/17 05:35:17;;;;;;;0.10;0.10;;;;;;;;;;6218786;23;20016;-88
2022/07/17 05:37:43;;;;;;;0.10;0.10;;;;;;;;;;6218703;23;20020;-88
2022/07/17 05:40:09;;;;;;;0.10;0.10;;;;;;;;;;6205248;23;20074;-88
2022/07/17 05:42:35;;;;;;;0.10;0.10;;;;;;;;;;6194074;23;20438;-88
2022/07/17 05:45:01;;;;;;;0.10;0.10;;;;;;;;;;6218938;23;20016;-88
2022/07/17 05:47:27;;;;;;;0.10;0.10;;;;;;;;;;6193742;23;20393;-88
2022/07/17 05:49:53;;;;;;;0.10;0.10;;;;;;;;;;6193725;23;20048;-88
2022/07/17 05:52:19;;;;;;;0.10;0.10;;;;;;;;;;6193737;23;20454;-88
2022/07/17 05:54:45;;;;;;;0.10;0.10;;;;;;;;;;6193717;23;20012;-87
2022/07/17 05:57:11;;;;;;;0.10;0.10;;;;;;;;;;6193719;23;20008;-90
2022/07/17 05:59:37;;;;;;;0.10;0.10;;;;;;;;;;6168671;23;20023;-87
2022/07/17 06:02:02;;;;;;;0.10;0.10;;;;;;;;;;6218718;23;20125;-86
2022/07/17 06:04:28;;;;;;;0.10;0.10;;;;;;;;;;6193290;23;20044;-87
2022/07/17 06:06:54;;;;;;;0.10;0.10;;;;;;;;;;6218424;23;20013;-87
2022/07/17 06:09:20;;;;;;;0.10;0.10;;;;;;;;;;6193786;23;20098;-85
2022/07/17 06:11:46;;;;;;;0.10;0.10;;;;;;;;;;6168746;23;20360;-85
2022/07/17 06:14:12;;;;;;;0.10;0.10;;;;;;;;;;6218335;23;20031;-85
2022/07/17 06:16:38;;;;;;;0.10;0.10;;;;;;;;;;6218296;23;20020;-85
2022/07/17 06:19:04;;;;;;;0.10;0.10;;;;;;;;;;6218510;23;20074;-86
2022/07/17 06:21:30;;;;;;;0.10;0.10;;;;;;;;;;6193655;23;20283;-87
2022/07/17 06:23:56;;;;;;;0.10;0.10;;;;;;;;;;6193494;23;20122;-86
2022/07/17 06:26:22;;;;;;;0.10;0.10;;;;;;;;;;6218344;23;20043;-85
2022/07/17 06:28:48;;;;;;;0.10;0.10;;;;;;;;;;6218106;23;20016;-85
2022/07/17 06:31:14;;;;;;;0.10;0.10;;;;;;;;;;6218146;23;20150;-86
2022/07/17 06:33:40;;;;;;;0.10;0.10;;;;;;;;;;6193232;23;20445;-87
2022/07/17 06:36:06;;;;;;;0.10;0.10;;;;;;;;;;6193342;23;20023;-86
2022/07/17 06:38:33;;;;;;;0.10;0.10;;;;;;;;;;6193259;23;20016;-87
2022/07/17 06:40:59;;;;;;;0.10;0.10;;;;;;;;;;6241261;23;20016;-89
2022/07/17 06:43:25;;;;;;;0.10;0.10;;;;;;;;;;6218628;23;20167;-87
2022/07/17 06:45:53;;;;;;;0.10;0.10;;;;;;;;;;6192855;23;20381;-86
2022/07/17 06:48:21;;;;;;;0.10;0.10;;;;;;;;;;6217951;23;20388;-87
2022/07/17 06:50:47;;;;;;;0.10;0.10;;;;;;;;;;6217706;23;20008;-87
2022/07/17 06:53:13;;;;;;;0.10;0.10;;;;;;;;;;6217940;23;20414;-87
2022/07/17 06:55:40;;;;;;;0.10;0.10;;;;;;;;;;6193231;23;20012;-86
2022/07/17 06:58:06;;;;;;;0.10;0.10;;;;;;;;;;6193138;23;20008;-88
2022/07/17 07:00:32;;;;;;;0.10;0.10;;;;;;;;;;6193012;23;20034;-87
2022/07/17 07:02:58;;;;;;;0.10;0.10;;;;;;;;;;6191058;23;20517;-88
2022/07/17 07:05:24;;;;;;;0.10;0.10;;;;;;;;;;6192670;23;20098;-87
2022/07/17 07:07:50;;;;;;;0.10;0.10;;;;;;;;;;6192757;23;20020;-84
2022/07/17 07:10:16;;;;;;;0.10;0.10;;;;;;;;;;6192787;23;20307;-88
2022/07/17 07:12:42;;;;;;;0.10;0.10;;;;;;;;;;6192774;23;20061;-88
2022/07/17 07:15:08;;;;;;;0.10;0.10;;;;;;;;;;6192422;23;20012;-90
2022/07/17 07:17:34;;;;;;;0.10;0.10;;;;;;;;;;6217640;23;20127;-88
2022/07/17 07:20:04;;;;;;;0.10;0.10;;;;;;;;;;6192774;23;20023;-91
2022/07/17 07:22:33;;;;;;;0.10;0.10;;;;;;;;;;6192944;23;20015;-89
2022/07/17 07:24:59;;;;;;;0.10;0.10;;;;;;;;;;6243046;23;20091;-88
2022/07/17 07:27:32;;;;;;;0.10;0.10;;;;;;;;;;6192438;23;20058;-87
2022/07/17 07:30:01;;;;;;;0.10;0.10;;;;;;;;;;6193180;23;20009;-88
2022/07/17 07:32:27;;;;;;;0.10;0.10;;;;;;;;;;6244597;23;20087;-88
2022/07/17 07:34:54;;;;;;;0.10;0.10;;;;;;;;;;6192616;23;20019;-88
2022/07/17 07:37:20;;;;;;;0.10;0.10;;;;;;;;;;6192776;23;20035;-88
2022/07/17 07:39:46;;;;;;;0.10;0.10;;;;;;;;;;6213453;22;20337;-88
2022/07/17 07:42:12;;;;;;;0.10;0.10;;;;;;;;;;6241210;22;20011;-88
2022/07/17 07:44:38;;;;;;;0.10;0.10;;;;;;;;;;6248017;22;20523;-89
2022/07/17 07:47:04;;;;;;;0.10;0.10;;;;;;;;;;6248129;22;20016;-89
2022/07/17 07:49:30;;;;;;;0.10;0.10;;;;;;;;;;6219380;22;20008;-88
2022/07/17 07:51:56;;;;;;;0.10;0.10;;;;;;;;;;6237785;22;20046;-89
2022/07/17 07:54:22;;;;;;;0.10;0.10;;;;;;;;;;6247909;22;20440;-89
2022/07/17 07:56:48;;;;;;;0.10;0.10;;;;;;;;;;6210697;22;20077;-89
2022/07/17 07:59:14;;;;;;;0.10;0.10;;;;;;;;;;6247915;22;20015;-89
2022/07/17 08:01:40;;;;;;;0.10;0.10;;;;;;;;;;6248272;22;20012;-89
2022/07/17 08:04:06;;;;;;;0.10;0.10;;;;;;;;;;6240676;22;20452;-89
2022/07/17 08:06:32;;;;;;;0.10;0.10;;;;;;;;;;6249874;22;20099;-89
2022/07/17 08:08:58;;;;;;;0.10;0.10;;;;;;;;;;6239898;22;20007;-89
2022/07/17 08:11:24;;;;;;;0.10;0.10;;;;;;;;;;6220751;22;20023;-89
2022/07/17 08:13:50;;;;;;;0.10;0.10;;;;;;;;;;6213619;22;20086;-88
2022/07/17 08:16:16;;;;;;;0.10;0.10;;;;;;;;;;6249981;22;20016;-88
2022/07/17 08:18:42;;;;;;;0.10;0.10;;;;;;;;;;6249737;22;20433;-88
2022/07/17 08:21:08;;;;;;;0.10;0.10;;;;;;;;;;6217301;22;20070;-87
2022/07/17 08:23:34;;;;;;;0.10;0.10;;;;;;;;;;6249789;22;20016;-90
2022/07/17 08:26:00;;;;;;;0.10;0.10;;;;;;;;;;6240096;22;20531;-90
2022/07/17 08:28:26;;;;;;;0.10;0.10;;;;;;;;;;6249583;22;20079;-88
2022/07/17 08:30:52;;;;;;;0.10;0.10;;;;;;;;;;6238678;22;20102;-88
2022/07/17 08:33:18;;;;;;;0.10;0.10;;;;;;;;;;6224614;22;20119;-86
2022/07/17 08:35:44;;;;;;;0.10;0.10;;;;;;;;;;6249557;22;20511;-87
2022/07/17 08:38:10;;;;;;;0.10;0.10;;;;;;;;;;6217094;22;20011;-86
2022/07/17 08:40:37;;;;;;;0.10;0.10;;;;;;;;;;6225418;23;20020;-87
2022/07/17 08:43:04;;;;;;;0.10;0.10;;;;;;;;;;6194155;23;20016;-85
2022/07/17 08:45:30;;;;;;;0.10;0.10;;;;;;;;;;6218992;23;20048;-86
2022/07/17 08:47:56;;;;;;;0.10;0.10;;;;;;;;;;6219065;23;20015;-88
2022/07/17 08:50:23;;;;;;;0.10;0.10;;;;;;;;;;6194258;23;20008;-88
2022/07/17 08:52:49;;;;;;;0.35;0.30;;;;;;;;;;6169219;23;20012;-90
2022/07/17 08:55:15;;;;;;;0.10;0.10;;;;;;;;;;6187761;23;20342;-88
2022/07/17 08:57:43;;;;;;;0.10;0.10;;;;;;;;;;6244888;23;20023;-87
2022/07/17 09:00:12;;;;;;;0.20;0.20;;;;;;;;;;6188860;23;20094;-87
2022/07/17 09:02:38;;;;;;;0.10;0.10;;;;;;;;;;6217185;23;20083;-87
2022/07/17 09:05:04;;;;;;;0.10;0.10;;;;;;;;;;6194064;23;20012;-87
2022/07/17 09:07:31;;;;;;;0.10;0.10;;;;;;;;;;6193288;23;20015;-87
2022/07/17 09:09:57;;;;;;;0.10;0.10;;;;;;;;;;6218353;23;20012;-87
2022/07/17 09:12:26;;;;;;;0.10;0.10;;;;;;;;;;6193759;23;20338;-87
2022/07/17 09:14:52;;;;;;;0.10;0.10;;;;;;;;;;6222544;23;20020;-87
2022/07/17 09:17:18;;;;;;;0.10;0.10;;;;;;;;;;6219622;23;20456;-87
2022/07/17 09:19:47;;;;;;;0.20;0.20;;;;;;;;;;6169553;23;20377;-87
2022/07/17 09:22:14;;;;;;;0.10;0.10;;;;;;;;;;6194297;23;20024;-87
2022/07/17 09:24:44;;;;;;;0.20;0.20;;;;;;;;;;6193947;23;20020;-87
2022/07/17 09:27:10;;;;;;;0.20;0.20;;;;;;;;;;6169209;23;20016;-88
2022/07/17 09:29:58;;;;;;;0.13;0.13;;;;;;;;;;6194135;23;20012;-88
2022/07/17 09:32:24;;;;;;;0.20;0.20;;;;;;;;;;6218232;23;20012;-84
2022/07/17 09:34:51;;;;;;;0.20;0.20;;;;;;;;;;6193581;23;20019;-83
2022/07/17 09:37:17;;;;;;;0.20;0.20;;;;;;;;;;6218447;23;20018;-85
2022/07/17 09:39:43;;;;;;;0.20;0.20;;;;;;;;;;6256147;22;20098;-86
2022/07/17 09:42:09;;;;;;;0.20;0.20;;;;;;;;;;6249009;22;20077;-86
2022/07/17 09:44:35;;;;;;;0.15;0.15;;;;;;;;;;6249209;22;20085;-85
2022/07/17 09:47:01;;;;;;;0.17;0.17;;;;;;;;;;6248820;22;20340;-84
2022/07/17 09:49:27;;;;;;;0.20;0.20;;;;;;;;;;6248951;22;20018;-87
2022/07/17 09:51:53;;;;;;;0.10;0.10;;;;;;;;;;6249080;22;20050;-85
2022/07/17 09:54:21;;;;;;;0.10;0.10;;;;;;;;;;6249316;22;20011;-84
2022/07/17 09:56:50;;;;;;;0.20;0.20;;;;;;;;;;6249184;22;20011;-85
2022/07/17 09:59:16;;;;;;;0.20;0.20;;;;;;;;;;6248812;22;20047;-86
2022/07/17 10:01:44;;;;;;;0.20;0.20;;;;;;;;;;6249194;22;20330;-86
2022/07/17 10:04:11;;;;;;;0.20;0.20;;;;;;;;;;6223555;22;20015;-84
2022/07/17 10:06:37;;;;;;;0.10;0.10;;;;;;;;;;6250033;22;20038;-87
2022/07/17 10:09:05;;;;;;;0.20;0.20;;;;;;;;;;6249677;22;20449;-87
2022/07/17 10:11:32;;;;;;;0.20;0.20;;;;;;;;;;6223637;22;20039;-88
2022/07/17 10:14:03;;;;;;;0.20;0.20;;;;;;;;;;6248887;22;20091;-87
2022/07/17 10:16:32;;;;;;;0.20;0.20;;;;;;;;;;6223363;22;20333;-86
2022/07/17 10:18:58;;;;;;;0.20;0.20;;;;;;;;;;6248536;22;20015;-86
2022/07/17 10:21:25;;;;;;;0.20;0.20;;;;;;;;;;6249429;22;20047;-86
2022/07/17 10:23:51;;;;;;;0.20;0.20;;;;;;;;;;6223079;22;20015;-86
2022/07/17 10:26:17;;;;;;;0.10;0.10;;;;;;;;;;6247887;22;20459;-86
2022/07/17 10:28:46;;;;;;;0.20;0.20;;;;;;;;;;6248210;22;20034;-86
2022/07/17 10:31:25;;;;;;;0.20;0.20;;;;;;;;;;6223050;22;20011;-86
2022/07/17 10:33:57;;;;;;;0.20;0.20;;;;;;;;;;6223642;22;20012;-87
2022/07/17 10:36:42;;;;;;;0.20;0.20;;;;;;;;;;6248716;22;20023;-87
2022/07/17 10:39:12;;;;;;;0.20;0.20;;;;;;;;;;6248104;22;20445;-86
2022/07/17 10:41:39;;;;;;;0.20;0.20;;;;;;;;;;6222076;22;20019;-87
2022/07/17 10:44:05;;;;;;;0.20;0.20;;;;;;;;;;6218110;23;20035;-88
2022/07/17 10:46:31;;;;;;;0.20;0.20;;;;;;;;;;6241992;22;20012;-88
2022/07/17 10:48:57;;;;;;;0.20;0.20;;;;;;;;;;6197879;22;20019;-87
2022/07/17 10:51:27;;;;;;;0.20;0.20;;;;;;;;;;6217160;22;20012;-87
2022/07/17 10:53:57;;;;;;;0.20;0.20;;;;;;;;;;6243366;23;20020;-86
2022/07/17 10:56:23;;;;;;;0.20;0.20;;;;;;;;;;6238677;22;20019;-89
2022/07/17 10:58:49;;;;;;;0.20;0.20;;;;;;;;;;6197891;22;20019;-88
2022/07/17 11:01:15;;;;;;;0.20;0.20;;;;;;;;;;6248191;22;20022;-88
2022/07/17 11:03:48;;;;;;;0.20;0.20;;;;;;;;;;6247098;22;20369;-88
2022/07/17 11:06:27;;;;;;;0.20;0.20;;;;;;;;;;6191547;23;20016;-87
2022/07/17 11:08:55;;;;;;;0.20;0.20;;;;;;;;;;6232117;23;20087;-85
2022/07/17 11:11:22;;;;;;;0.20;0.20;;;;;;;;;;6243452;22;20430;-88
2022/07/17 11:13:48;;;;;;;0.20;0.20;;;;;;;;;;6192925;23;20012;-86
2022/07/17 11:16:27;;;;;;;0.20;0.20;;;;;;;;;;6262179;22;20023;-87
2022/07/17 11:18:53;;;;;;;0.10;0.10;;;;;;;;;;6247978;22;20019;-85
2022/07/17 11:21:19;;;;;;;0.20;0.20;;;;;;;;;;6217677;23;20402;-85
2022/07/17 11:23:52;;;;;;;0.40;0.40;;;;;;;;;;6248016;22;20069;-87
2022/07/17 11:26:18;;;;;;;0.10;0.10;;;;;;;;;;6217715;23;20016;-86
2022/07/17 11:28:44;;;;;;;0.13;0.13;;;;;;;;;;6222277;22;20007;-86
2022/07/17 11:31:16;;;;;;;0.10;0.10;;;;;;;;;;6247918;22;20012;-86
2022/07/17 11:33:55;;;;;;;0.10;0.10;;;;;;;;;;6247697;22;20465;-86
2022/07/17 11:36:24;;;;;;;0.10;0.10;;;;;;;;;;6248312;22;20047;-87
2022/07/17 11:38:50;;;;;;;0.10;0.10;;;;;;;;;;6248361;22;20044;-86
2022/07/17 11:41:17;;;;;;;0.10;0.10;;;;;;;;;;6194787;23;20059;-87
2022/07/17 11:43:43;;;;;;;0.10;0.10;;;;;;;;;;6249242;22;20082;-86
2022/07/17 11:46:09;;;;;;;0.20;0.20;;;;;;;;;;6249801;22;20096;-87
2022/07/17 11:48:35;;;;;;;0.20;0.20;;;;;;;;;;6225047;22;20007;-86
2022/07/17 11:51:01;;;;;;;0.13;0.13;;;;;;;;;;6249986;22;20463;-86
2022/07/17 11:53:31;;;;;;;0.20;0.20;;;;;;;;;;6249897;22;20407;-87
2022/07/17 11:55:57;;;;;;;0.10;0.10;;;;;;;;;;6224740;22;20023;-86
2022/07/17 11:58:23;;;;;;;0.20;0.20;;;;;;;;;;6249708;22;20015;-87
2022/07/17 12:00:49;;;;;;;0.20;0.20;;;;;;;;;;6224986;22;20012;-87
2022/07/17 12:03:15;;;;;;;0.20;0.20;;;;;;;;;;6224657;22;20073;-87
2022/07/17 12:05:41;;;;;;;0.10;0.10;;;;;;;;;;6224581;22;20483;-86
2022/07/17 12:08:10;;;;;;;0.10;0.10;;;;;;;;;;6224539;22;20086;-86
2022/07/17 12:10:36;;;;;;;0.10;0.10;;;;;;;;;;6199429;22;20012;-86
2022/07/17 12:13:04;;;;;;;0.20;0.20;;;;;;;;;;6249785;22;20008;-86
2022/07/17 12:15:49;;;;;;;0.10;0.10;;;;;;;;;;6221586;22;20008;-86
2022/07/17 12:18:21;;;;;;;0.10;0.10;;;;;;;;;;6194274;23;20135;-87
2022/07/17 12:20:48;;;;;;;0.20;0.20;;;;;;;;;;6258106;22;20034;-86
2022/07/17 12:23:27;;;;;;;0.10;0.10;;;;;;;;;;6243148;22;20014;-86
2022/07/17 12:26:03;;;;;;;0.15;0.15;;;;;;;;;;6249626;22;20012;-86
2022/07/17 12:28:30;;;;;;;0.10;0.10;;;;;;;;;;6221248;22;20019;-86
2022/07/17 12:30:55;;;;;;;0.20;0.20;;;;;;;;;;6249690;22;20083;-85
2022/07/17 12:33:21;;;;;;;0.20;0.20;;;;;;;;;;6219822;22;20046;-86
2022/07/17 12:35:47;;;;;;;0.20;0.20;;;;;;;;;;6219313;23;20008;-86
2022/07/17 12:38:13;;;;;;;0.20;0.20;;;;;;;;;;6263258;22;20341;-86
2022/07/17 12:40:39;;;;;;;0.10;0.10;;;;;;;;;;6248223;22;20105;-86
2022/07/17 12:43:05;;;;;;;0.20;0.20;;;;;;;;;;6249642;22;20007;-86
2022/07/17 12:45:31;;;;;;;0.20;0.20;;;;;;;;;;6196419;22;20445;-86
2022/07/17 12:47:57;;;;;;;0.20;0.20;;;;;;;;;;6249354;22;20472;-86
2022/07/17 12:50:23;;;;;;;0.20;0.20;;;;;;;;;;6195080;22;20083;-87
2022/07/17 12:52:49;;;;;;;0.10;0.10;;;;;;;;;;6219045;23;20039;-86
2022/07/17 12:55:17;;;;;;;0.20;0.20;;;;;;;;;;6237103;22;20011;-86
2022/07/17 12:57:43;;;;;;;0.10;0.10;;;;;;;;;;6249244;22;20477;-86
2022/07/17 13:00:09;;;;;;;0.20;0.20;;;;;;;;;;6218937;23;20016;-86
2022/07/17 13:02:35;;;;;;;0.20;0.20;;;;;;;;;;6245311;22;20326;-85
2022/07/17 13:05:01;;;;;;;0.20;0.20;;;;;;;;;;6224038;22;20094;-88
2022/07/17 13:07:27;;;;;;;0.20;0.20;;;;;;;;;;6224375;22;20523;-88
2022/07/17 13:09:53;;;;;;;0.17;0.17;;;;;;;;;;6198900;22;20336;-89
2022/07/17 13:12:19;;;;;;;0.20;0.20;;;;;;;;;;6243795;22;20082;-92
2022/07/17 13:14:45;;;;;;;0.10;0.10;;;;;;;;;;6249158;22;20020;-88
2022/07/17 13:17:11;;;;;;;0.10;0.10;;;;;;;;;;6224025;22;20467;-91
2022/07/17 13:19:37;;;;;;;0.20;0.20;;;;;;;;;;6197235;22;20012;-90
2022/07/17 13:22:08;;;;;;;0.15;0.15;;;;;;;;;;6248443;22;20052;-91
2022/07/17 13:24:37;;;;;;;0.20;0.20;;;;;;;;;;6223412;22;20015;-91
2022/07/17 13:27:03;;;;;;;0.10;0.10;;;;;;;;;;6218736;23;20016;-91
2022/07/17 13:29:29;;;;;;;0.20;0.20;;;;;;;;;;6242543;22;20012;-89
2022/07/17 13:31:56;;;;;;;0.20;0.20;;;;;;;;;;6249115;22;20008;-90
2022/07/17 13:34:22;;;;;;;0.20;0.20;;;;;;;;;;6223837;22;20030;-90
2022/07/17 13:36:48;;;;;;;0.17;0.17;;;;;;;;;;6198521;22;20396;-92
2022/07/17 13:39:14;;;;;;;0.13;0.13;;;;;;;;;;6242144;22;20019;-88
2022/07/17 13:41:41;;;;;;;0.20;0.20;;;;;;;;;;6248978;22;20027;-88
2022/07/17 13:44:07;;;;;;;0.95;0.70;;;;;;;;;;6218501;23;20016;-90
2022/07/17 13:46:33;;;;;;;0.20;0.20;;;;;;;;;;6243306;22;20016;-91
2022/07/17 13:48:59;;;;;;;0.20;0.20;;;;;;;;;;6198629;22;20008;-91
2022/07/17 13:51:29;;;;;;;0.20;0.20;;;;;;;;;;6218667;22;20011;-89
2022/07/17 13:53:56;;;;;;;0.20;0.20;;;;;;;;;;6218596;23;20538;-92
2022/07/17 13:56:22;;;;;;;0.20;0.20;;;;;;;;;;6214171;22;20095;-90
2022/07/17 13:58:48;;;;;;;0.10;0.10;;;;;;;;;;6198295;22;20016;-89
2022/07/17 14:01:15;;;;;;;0.30;0.30;;;;;;;;;;6241878;22;20015;-90
2022/07/17 14:03:41;;;;;;;0.10;0.10;;;;;;;;;;6248449;22;20019;-91
2022/07/17 14:06:07;;;;;;;0.20;0.20;;;;;;;;;;6218635;23;20023;-91
2022/07/17 14:08:33;;;;;;;0.10;0.10;;;;;;;;;;6243736;22;20066;-91
2022/07/17 14:10:59;;;;;;;0.10;0.10;;;;;;;;;;6223845;22;20551;-90
2022/07/17 14:13:25;;;;;;;0.20;0.20;;;;;;;;;;6248845;22;20078;-91
2022/07/17 14:15:51;;;;;;;0.20;0.20;;;;;;;;;;6223571;22;20011;-90
2022/07/17 14:18:17;;;;;;;0.10;0.10;;;;;;;;;;6198080;22;20043;-90
2022/07/17 14:20:46;;;;;;;0.20;0.20;;;;;;;;;;6248276;22;20015;-90
2022/07/17 14:23:12;;;;;;;0.20;0.20;;;;;;;;;;6218547;23;20012;-90
2022/07/17 14:25:41;;;;;;;0.20;0.20;;;;;;;;;;6245265;22;20014;-90
2022/07/17 14:28:07;;;;;;;0.20;0.20;;;;;;;;;;6198314;22;20022;-89
2022/07/17 14:30:38;;;;;;;0.20;0.20;;;;;;;;;;6220032;22;20015;-92
2022/07/17 14:33:04;;;;;;;0.20;0.20;;;;;;;;;;6218556;23;20084;-90
2022/07/17 14:35:36;;;;;;;0.20;0.20;;;;;;;;;;6242718;22;20086;-91
2022/07/17 14:38:05;;;;;;;0.20;0.20;;;;;;;;;;6223685;22;20341;-90
2022/07/17 14:40:34;;;;;;;0.20;0.20;;;;;;;;;;6200403;22;20020;-92